GMTA/AHU METAR and TAF weather

Enter ICAO airport designator
Station Type Date Time Source
GMTA METAR 2022/12/04 11:00 UTC NOAA

GMTA 041100Z 35006KT 300V020 CAVOK 18/11 Q1010 NOSIG


Station Type Date Time Source
GMTA Decoded METAR 2022/12/04 11:00 UTC NOAA

Al Hoceima, Morocco (GMTA) 35-11N 003-51W 14M
Dec 04, 2022 - 06:00 AM EST / 2022.12.04 1100 UTC
Wind: from the N (350 degrees) at 7 MPH (6 KT) (direction variable):0
Visibility: greater than 7 mile(s):0
Temperature: 64 F (18 C)
Dew Point: 51 F (11 C)
Relative Humidity: 63%
Pressure (altimeter): 29.83 in. Hg (1010 hPa)
ob: GMTA 041100Z 35006KT 300V020 CAVOK 18/11 Q1010 NOSIG
cycle: 11

Station Type Date Time Source
GMTA TAF 2022/12/04 12:27 UTC NOAA

TAF GMTA 041100Z 0412/0518 35008KT CAVOK

Example: see airport list